Aeroporto :
LOGIN :

Iscrizione | Disclaimer

   EN    FR    IT 

 










Sommario :    VFR   VFR Marginale   IFR   IFR Intensivo   IFR Molto Intensivo
Visibilità : 
Base nubi : 
>= 8 km
>= 3000ft
5 / 8 km
1000 / 3000 ft
1500m / 5 km
500 / 1000 ft
800 / 1500m
200 / 500 ft
< 800m
< 200 ft
Simboli :   Temporali  Nebbia  Neve Forte  Precipitazioni Forti  Vento > 20 kt
SIGMETs :   Varie  Temporali  Ghiacco  Turbolenza  Onda orograficha  Ceneri Vulcaniche






- Altitudine del aeroporto : 319 ft


EIME - Casement Air Base

ULTIMO METAR :
  • 150400Z 23015KT 9999 -RADZ FEW010 SCT060 01/00 Q0983

METARs OBSOLETI :
  • 150300Z 23019G29KT 9999 -RADZ FEW018 SCT030 02/01 Q0982
  • 150200Z 22020KT 9999 -DZ FEW018 02/00 Q0980

TAF TAF EIME
Valido dal 15 a 03 ore il 15 a 12 ore UTC


150200Z 1503/1512 23017G28KT 9999 FEW018 BKN040
BECMG 1503/1505 23013KT
PROB30
TEMPO 1505/1509 SCT004 BKN007
BECMG 1509/1511 17008KT



MetMap, La meteo Aeronautica in un colpo d'occhio ! - Copyright ORBIFLY Dicembre 2007 - Disclaimer

ORBIFLY MET'MAP TEAM :

Programmazione e sviluppo : Alexandra Zaïnal
Concezione : Baudouin d'Aumeries
Aiuto per la programmazione : Marc-Olivier Méhu
Supporto tecnico e logistico : Manuel Goepfert
Aiuto per la traduzione : Arnaldo La Scala

Contatto : metmap@orbifly.com




FONTI E CREDITI :

   NOAA